Time;durP1;ratioP1;P1;durP2;ratioP2;P2;SDS_P1;SDS_P2;PMS_P1;PMS_P2;Temp;Humidity;BMP_temperature;BMP_pressure;BME280_temperature;BME280_humidity;BME280_pressure;Samples;Min_cycle;Max_cycle;Signal;HPM_P1;HPM_P2
2021/10/23 00:00:06;;;;;;;32.15;13.63;;;6.40;99.90;;;7.37;100.00;101279.13;6082701;23;20006;-82
2021/10/23 00:02:32;;;;;;;30.92;15.00;;;6.30;99.90;;;7.29;100.00;101293.78;6098644;23;20138;-81
2021/10/23 00:04:58;;;;;;;32.53;14.60;;;6.30;99.90;;;7.25;100.00;101292.81;6075733;23;20321;-80
2021/10/23 00:07:24;;;;;;;36.83;14.50;;;6.20;99.90;;;7.19;100.00;101290.50;6074717;23;20006;-82
2021/10/23 00:09:50;;;;;;;35.70;16.20;;;6.20;99.90;;;7.22;100.00;101298.19;6074448;23;20017;-81
2021/10/23 00:12:16;;;;;;;29.40;14.77;;;6.20;99.90;;;7.19;100.00;101294.06;6075424;23;20381;-82
2021/10/23 00:14:42;;;;;;;32.05;14.77;;;6.10;99.90;;;7.19;100.00;101301.59;6075523;23;20072;-83
2021/10/23 00:17:08;;;;;;;33.30;14.70;;;6.10;99.90;;;7.16;100.00;101305.81;6099486;23;20034;-85
2021/10/23 00:19:35;;;;;;;36.05;17.15;;;6.10;99.90;;;7.16;100.00;101303.03;6075118;23;20027;-83
2021/10/23 00:22:03;;;;;;;29.80;15.52;;;6.10;99.90;;;7.15;100.00;101306.16;6100059;23;20077;-82
2021/10/23 00:24:29;;;;;;;36.05;14.60;;;6.10;99.90;;;7.16;100.00;101300.25;6099240;23;20002;-83
2021/10/23 00:26:55;;;;;;;30.58;15.63;;;6.20;99.90;;;7.17;100.00;101307.47;6098047;23;20045;-82
2021/10/23 00:29:22;;;;;;;36.03;15.82;;;6.20;99.90;;;7.17;100.00;101312.19;6074405;23;20010;-83
2021/10/23 00:31:48;;;;;;;40.20;17.42;;;6.20;99.90;;;7.24;100.00;101316.16;6100382;23;20337;-81
2021/10/23 00:34:14;;;;;;;39.30;16.55;;;6.20;99.90;;;7.27;100.00;101323.84;6099277;23;20009;-83
2021/10/23 00:36:41;;;;;;;38.75;18.42;;;6.30;99.90;;;7.29;100.00;101324.34;6097790;23;20011;-82
2021/10/23 00:39:06;;;;;;;46.30;19.35;;;6.30;99.90;;;7.36;100.00;101329.44;6099775;23;20037;-83
2021/10/23 00:41:33;;;;;;;34.17;18.08;;;6.30;99.90;;;7.40;100.00;101325.72;6074526;23;20013;-82
2021/10/23 00:43:59;;;;;;;41.78;17.92;;;6.30;99.90;;;7.34;100.00;101331.75;6074027;23;20057;-83
2021/10/23 00:46:24;;;;;;;30.83;15.27;;;6.30;99.90;;;7.28;100.00;101330.25;6100241;23;20007;-81
2021/10/23 00:48:50;;;;;;;32.50;15.82;;;6.20;99.90;;;7.25;100.00;101336.44;6100496;23;20343;-82
2021/10/23 00:51:17;;;;;;;37.10;17.92;;;6.20;99.90;;;7.19;100.00;101327.41;6098670;23;20015;-82
2021/10/23 00:53:45;;;;;;;35.22;17.88;;;6.20;99.90;;;7.25;100.00;101330.88;6074236;23;20460;-81
2021/10/23 00:56:11;;;;;;;42.28;18.35;;;6.20;99.90;;;7.20;100.00;101329.06;6073519;23;20161;-82
2021/10/23 00:58:39;;;;;;;36.17;17.10;;;6.20;99.90;;;7.23;100.00;101333.13;6099465;23;20405;-83
2021/10/23 01:01:04;;;;;;;40.75;19.42;;;6.20;99.90;;;7.23;100.00;101331.19;6099554;23;20006;-81
2021/10/23 01:03:31;;;;;;;40.75;18.98;;;6.20;99.90;;;7.31;100.00;101337.94;6073976;23;20068;-83
2021/10/23 01:05:57;;;;;;;45.13;20.58;;;6.20;99.90;;;7.29;100.00;101331.84;6073545;23;20010;-81
2021/10/23 01:08:23;;;;;;;35.53;19.30;;;6.20;99.90;;;7.32;100.00;101342.38;6073706;23;20024;-83
2021/10/23 01:10:52;;;;;;;40.35;19.73;;;6.20;99.90;;;7.29;100.00;101338.25;6074820;23;20014;-79
2021/10/23 01:13:18;;;;;;;47.20;20.50;;;6.20;99.90;;;7.24;100.00;101335.63;6073391;23;20057;-83
2021/10/23 01:15:43;;;;;;;47.95;21.80;;;6.30;99.90;;;7.27;100.00;101336.94;6073788;23;20061;-83
2021/10/23 01:18:09;;;;;;;49.78;22.23;;;6.20;99.90;;;7.28;100.00;101336.63;6073761;23;20010;-81
2021/10/23 01:20:36;;;;;;;47.63;21.30;;;6.30;99.90;;;7.29;100.00;101338.25;6074622;23;20112;-81
2021/10/23 01:23:02;;;;;;;48.55;20.88;;;6.20;99.90;;;7.24;100.00;101338.41;6073930;23;20041;-83
2021/10/23 01:25:30;;;;;;;46.95;20.73;;;6.20;99.90;;;7.24;100.00;101334.78;6073935;23;20010;-82
2021/10/23 01:28:01;;;;;;;42.22;19.95;;;6.20;99.90;;;7.16;100.00;101333.59;6099559;23;20061;-81
2021/10/23 01:30:28;;;;;;;45.85;20.98;;;6.10;99.90;;;7.16;100.00;101339.16;6074588;23;20038;-80
2021/10/23 01:32:55;;;;;;;52.83;22.13;;;6.10;99.90;;;7.18;100.00;101345.22;6073130;23;20124;-79
2021/10/23 01:35:24;;;;;;;51.10;23.15;;;6.10;99.90;;;7.20;100.00;101342.94;6099056;23;20065;-84
2021/10/23 01:37:52;;;;;;;58.63;24.80;;;6.20;99.90;;;7.18;100.00;101334.13;6073401;23;20033;-82
2021/10/23 01:40:25;;;;;;;72.68;27.20;;;6.20;99.90;;;7.20;100.00;101331.81;6074036;23;20113;-81
2021/10/23 01:42:51;;;;;;;51.88;22.88;;;6.20;99.90;;;7.26;100.00;101338.06;6098491;23;20097;-84
2021/10/23 01:45:18;;;;;;;61.13;26.25;;;6.20;99.90;;;7.26;100.00;101333.31;6100205;23;20084;-83
2021/10/23 01:47:45;;;;;;;60.45;26.48;;;6.20;99.90;;;7.16;100.00;101333.59;6073800;23;20014;-81
2021/10/23 01:50:20;;;;;;;64.78;24.98;;;6.20;99.90;;;7.18;100.00;101339.66;6100108;23;20389;-83
2021/10/23 01:52:46;;;;;;;64.22;26.75;;;6.20;99.90;;;7.18;100.00;101341.63;6099023;23;20014;-81
2021/10/23 01:55:16;;;;;;;59.38;24.85;;;6.10;99.90;;;7.17;100.00;101337.19;6072776;23;20078;-82
2021/10/23 01:57:43;;;;;;;58.50;25.88;;;6.10;99.90;;;7.16;100.00;101339.16;6096502;23;20022;-83
2021/10/23 02:00:13;;;;;;;67.65;26.95;;;6.10;99.90;;;7.22;100.00;101335.13;6096896;23;20007;-83
2021/10/23 02:02:40;;;;;;;63.25;26.75;;;6.20;99.90;;;7.31;100.00;101335.97;6096665;23;20064;-84
2021/10/23 02:05:08;;;;;;;66.60;27.23;;;6.30;99.90;;;7.39;100.00;101332.41;6098385;23;20014;-83
2021/10/23 02:07:35;;;;;;;53.47;25.50;;;6.30;99.90;;;7.41;100.00;101332.09;6073001;23;20303;-83
2021/10/23 02:10:07;;;;;;;56.90;25.60;;;6.40;99.90;;;7.32;100.00;101336.81;6096922;23;20011;-85
2021/10/23 02:12:34;;;;;;;67.78;28.90;;;6.30;99.90;;;7.26;100.00;101332.50;6097001;23;20404;-83
2021/10/23 02:15:03;;;;;;;58.05;26.33;;;6.30;99.90;;;7.26;100.00;101325.00;6106870;23;20041;-83
2021/10/23 02:17:29;;;;;;;70.53;27.50;;;6.20;99.90;;;7.28;100.00;101319.94;6114831;23;20017;-82
2021/10/23 02:19:55;;;;;;;69.07;29.35;;;6.30;99.90;;;7.31;100.00;101330.44;6073362;23;20012;-82
2021/10/23 02:22:21;;;;;;;58.38;26.10;;;6.30;99.90;;;7.31;100.00;101330.44;6098151;23;20065;-83
2021/10/23 02:24:46;;;;;;;69.70;28.00;;;6.30;99.90;;;7.30;100.00;101326.00;6073386;23;20014;-83
2021/10/23 02:27:12;;;;;;;72.72;31.63;;;6.30;99.90;;;7.26;100.00;101330.53;6097982;23;20322;-83
2021/10/23 02:29:38;;;;;;;64.72;28.50;;;6.20;99.90;;;7.27;100.00;101328.59;6099330;23;20010;-84
2021/10/23 02:32:04;;;;;;;81.10;33.28;;;6.20;99.90;;;7.18;100.00;101320.22;6073859;23;20018;-85
2021/10/23 02:34:31;;;;;;;85.53;32.53;;;6.20;99.90;;;7.23;100.00;101338.69;6073762;23;20011;-83
2021/10/23 02:36:57;;;;;;;70.93;31.20;;;6.30;99.90;;;7.23;100.00;101333.13;6100224;23;20064;-83
2021/10/23 02:39:23;;;;;;;78.45;32.58;;;6.20;99.90;;;7.24;100.00;101332.00;6074984;23;20437;-83
2021/10/23 02:41:50;;;;;;;68.47;29.92;;;6.20;99.90;;;7.24;100.00;101335.63;6097913;23;20049;-82
2021/10/23 02:44:16;;;;;;;83.35;32.80;;;6.20;99.90;;;7.22;100.00;101356.53;6099219;23;20022;-83
2021/10/23 02:46:42;;;;;;;83.32;33.13;;;6.20;99.90;;;7.19;100.00;101359.94;6097246;23;20098;-83
2021/10/23 02:49:09;;;;;;;87.25;33.88;;;6.10;99.90;;;7.19;100.00;101365.50;6073169;23;20065;-81
2021/10/23 02:51:35;;;;;;;100.57;36.00;;;6.20;99.90;;;7.19;100.00;101360.75;6097684;23;20014;-83
2021/10/23 02:54:02;;;;;;;77.82;30.40;;;6.20;99.90;;;7.26;100.00;101371.41;6073519;23;20010;-81
2021/10/23 02:56:28;;;;;;;79.60;30.40;;;6.20;99.90;;;7.23;100.00;101358.16;6099724;23;20073;-83
2021/10/23 02:58:54;;;;;;;74.60;30.45;;;6.20;99.90;;;7.21;100.00;101361.25;6073385;23;20097;-83
2021/10/23 03:01:20;;;;;;;79.93;31.17;;;6.20;99.90;;;7.16;100.00;101363.38;6099439;23;20077;-83
2021/10/23 03:03:47;;;;;;;77.05;30.38;;;6.10;99.90;;;7.16;100.00;101372.50;6099951;23;20425;-83
2021/10/23 03:06:17;;;;;;;79.07;31.30;;;6.10;99.90;;;7.10;100.00;101379.31;6099131;23;20034;-82
2021/10/23 03:08:45;;;;;;;67.68;28.17;;;6.10;99.90;;;7.07;100.00;101398.56;6072773;23;20014;-83
2021/10/23 03:11:11;;;;;;;72.40;29.73;;;6.00;99.90;;;7.00;100.00;101409.34;6072943;23;20397;-83
2021/10/23 03:13:37;;;;;;;71.45;28.08;;;5.90;99.90;;;6.95;100.00;101413.03;6096722;23;20381;-83
2021/10/23 03:16:04;;;;;;;74.38;30.52;;;5.90;99.90;;;6.96;100.00;101405.53;6099071;23;20018;-83
2021/10/23 03:18:30;;;;;;;79.70;30.77;;;5.90;99.90;;;6.95;100.00;101396.38;6096782;23;20006;-84
2021/10/23 03:20:57;;;;;;;78.05;27.92;;;5.90;99.90;;;7.02;100.00;101401.50;6073309;23;20345;-82
2021/10/23 03:23:23;;;;;;;74.10;31.13;;;5.90;99.90;;;7.09;100.00;101411.03;6072160;23;20025;-80
2021/10/23 03:25:49;;;;;;;80.85;30.95;;;6.00;99.90;;;7.18;100.00;101411.91;6072125;23;20125;-81
2021/10/23 03:28:15;;;;;;;85.53;31.40;;;6.10;99.90;;;7.26;100.00;101404.75;6072553;23;20036;-81
2021/10/23 03:30:41;;;;;;;85.97;32.92;;;6.20;99.90;;;7.28;100.00;101408.03;6072102;23;20018;-80
2021/10/23 03:33:07;;;;;;;75.32;29.77;;;6.20;99.90;;;7.34;100.00;101406.78;6071851;23;20125;-81
2021/10/23 03:35:33;;;;;;;84.28;33.00;;;6.30;99.90;;;7.38;100.00;101400.25;6096366;23;20067;-82
2021/10/23 03:38:00;;;;;;;88.85;32.85;;;6.30;99.90;;;7.36;100.00;101421.16;6099213;23;20441;-84
2021/10/23 03:40:26;;;;;;;89.97;35.50;;;6.30;99.90;;;7.42;100.00;101409.59;6096578;23;20038;-82
2021/10/23 03:42:52;;;;;;;97.75;34.65;;;6.40;99.90;;;7.42;100.00;101409.59;6072533;23;20362;-83
2021/10/23 03:45:18;;;;;;;98.82;36.20;;;6.30;99.90;;;7.38;100.00;101400.25;6072159;23;20053;-82
2021/10/23 03:47:44;;;;;;;87.45;33.08;;;6.40;99.90;;;7.45;100.00;101401.78;6098210;23;20010;-83
2021/10/23 03:50:10;;;;;;;91.75;34.40;;;6.40;99.90;;;7.40;100.00;101397.16;6096703;23;20101;-83
2021/10/23 03:52:37;;;;;;;78.47;33.30;;;6.50;99.90;;;7.46;100.00;101398.66;6098128;23;20002;-82
2021/10/23 03:55:05;;;;;;;76.43;30.95;;;6.40;99.90;;;7.45;100.00;101393.44;6072666;23;20021;-83
2021/10/23 03:57:31;;;;;;;82.70;32.58;;;6.40;99.90;;;7.38;100.00;101380.78;6073827;23;20010;-83
2021/10/23 03:59:58;;;;;;;85.38;33.33;;;6.40;99.90;;;7.30;100.00;101383.53;6100006;23;20139;-83
2021/10/23 04:02:24;;;;;;;87.53;32.60;;;6.40;99.90;;;7.27;100.00;101375.84;6099037;23;20018;-83
2021/10/23 04:04:50;;;;;;;82.82;33.70;;;6.30;99.90;;;7.23;100.00;101369.25;6073046;23;20038;-85
2021/10/23 04:07:15;;;;;;;91.43;33.65;;;6.30;99.90;;;7.16;100.00;101364.16;6098898;23;20061;-83
2021/10/23 04:09:41;;;;;;;91.43;35.65;;;6.30;99.90;;;7.20;100.00;101367.94;6097520;23;20042;-84
2021/10/23 04:12:07;;;;;;;92.28;34.67;;;6.30;99.90;;;7.19;100.00;101362.72;6073423;23;20142;-85
2021/10/23 04:14:33;;;;;;;94.68;34.45;;;6.30;99.90;;;7.19;100.00;101363.53;6098737;23;20003;-84
2021/10/23 04:16:59;;;;;;;92.93;34.53;;;6.30;99.90;;;7.24;100.00;101368.13;6099866;23;20073;-85
2021/10/23 04:19:26;;;;;;;90.20;35.55;;;6.30;99.90;;;7.30;100.00;101378.78;6073489;23;20386;-83
2021/10/23 04:21:51;;;;;;;83.47;32.58;;;6.30;99.90;;;7.31;100.00;101379.63;6097809;23;20029;-84
2021/10/23 04:24:17;;;;;;;74.88;32.50;;;6.20;99.90;;;7.20;100.00;101381.00;6099733;23;20007;-86
2021/10/23 04:26:43;;;;;;;75.38;29.63;;;6.20;99.90;;;7.11;100.00;101391.25;6099581;23;20374;-85
2021/10/23 04:29:09;;;;;;;65.90;28.60;;;6.10;99.90;;;7.04;100.00;101404.75;6100010;23;20033;-85
2021/10/23 04:31:36;;;;;;;77.95;31.23;;;6.00;99.90;;;6.95;100.00;101409.44;6099455;23;20014;-83
2021/10/23 04:34:02;;;;;;;73.53;30.48;;;5.90;99.90;;;6.89;100.00;101409.59;6087625;23;20034;-81
2021/10/23 04:36:29;;;;;;;78.70;32.72;;;5.90;99.90;;;6.90;100.00;101421.50;6080973;23;20014;-82
2021/10/23 04:38:55;;;;;;;84.82;32.30;;;5.90;99.90;;;6.93;100.00;101420.88;6097461;23;20014;-83
2021/10/23 04:41:21;;;;;;;116.63;37.78;;;5.90;99.90;;;6.98;100.00;101419.91;6072397;23;20003;-84
2021/10/23 04:43:47;;;;;;;110.68;39.53;;;6.00;99.90;;;7.11;100.00;101421.81;6072676;23;20014;-82
2021/10/23 04:46:12;;;;;;;114.10;40.38;;;6.10;99.90;;;7.20;100.00;101431.03;6098356;23;20033;-82
2021/10/23 04:48:38;;;;;;;126.22;40.78;;;6.20;99.90;;;7.29;100.00;101440.22;6070572;23;20007;-85
2021/10/23 04:51:04;;;;;;;117.75;38.72;;;6.30;99.90;;;7.38;100.00;101435.56;6070582;23;20014;-83
2021/10/23 04:53:30;;;;;;;111.97;40.58;;;6.30;99.90;;;7.43;100.00;101433.47;6094685;23;20404;-85
2021/10/23 04:55:56;;;;;;;123.32;41.30;;;6.30;99.90;;;7.49;100.00;101420.25;6096730;23;20002;-84
2021/10/23 04:58:22;;;;;;;124.05;39.08;;;6.40;99.90;;;7.50;100.00;101429.41;6097158;23;20014;-86
2021/10/23 05:00:48;;;;;;;117.90;37.30;;;6.50;99.90;;;7.49;100.00;101424.97;6095764;23;20010;-82
2021/10/23 05:03:13;;;;;;;109.47;38.38;;;6.40;99.90;;;7.38;100.00;101421.69;6096724;23;20014;-85
2021/10/23 05:05:39;;;;;;;100.57;37.17;;;6.40;99.90;;;7.34;100.00;101429.81;6095616;23;20041;-85
2021/10/23 05:08:05;;;;;;;97.78;35.67;;;6.30;99.90;;;7.24;100.00;101430.09;6097078;23;20006;-82
2021/10/23 05:10:31;;;;;;;109.57;36.42;;;6.20;99.90;;;7.17;100.00;101431.66;6097638;23;20014;-83
2021/10/23 05:12:57;;;;;;;117.57;37.55;;;6.20;99.90;;;7.19;100.00;101418.28;6082278;23;20021;-82
2021/10/23 05:15:23;;;;;;;107.13;36.20;;;6.20;99.90;;;7.20;100.00;101414.34;6116652;23;20002;-80
2021/10/23 05:17:49;;;;;;;88.50;32.30;;;6.20;99.90;;;7.16;100.00;101421.69;6095735;23;20025;-82
2021/10/23 05:20:16;;;;;;;79.80;31.98;;;6.10;99.90;;;7.09;100.00;101418.53;6120120;23;20003;-84
2021/10/23 05:22:42;;;;;;;110.03;37.63;;;6.00;99.90;;;6.97;100.00;101419.09;6110180;23;20013;-85
2021/10/23 05:25:08;;;;;;;99.93;37.13;;;5.90;99.90;;;6.92;100.00;101415.63;6098692;23;20014;-85
2021/10/23 05:27:34;;;;;;;87.68;34.25;;;5.90;99.90;;;6.88;100.00;101419.03;6097769;23;20038;-84
2021/10/23 05:30:00;;;;;;;96.07;35.13;;;5.90;99.90;;;6.86;100.00;101426.06;6098038;23;20077;-85
2021/10/23 05:32:26;;;;;;;83.80;32.85;;;5.80;99.90;;;6.77;100.00;101417.66;6098910;23;20019;-84
2021/10/23 05:34:52;;;;;;;73.53;31.20;;;5.70;99.90;;;6.64;100.00;101429.63;6099486;23;20389;-84
2021/10/23 05:37:18;;;;;;;79.95;30.58;;;5.60;99.90;;;6.50;100.00;101434.38;6074006;23;20421;-84
2021/10/23 05:39:44;;;;;;;87.32;33.00;;;5.50;99.90;;;6.40;100.00;101437.38;6072922;23;20007;-83
2021/10/23 05:42:10;;;;;;;93.50;32.88;;;5.40;99.90;;;6.33;100.00;101448.06;6072651;23;20014;-83
2021/10/23 05:44:36;;;;;;;95.43;33.42;;;5.30;99.90;;;6.28;100.00;101437.09;6096820;23;20029;-82
2021/10/23 05:47:02;;;;;;;94.80;34.75;;;5.30;99.90;;;6.21;100.00;101443.06;6098379;23;20030;-82
2021/10/23 05:49:28;;;;;;;103.40;36.58;;;5.30;99.90;;;6.24;100.00;101436.88;6097394;23;20461;-84
2021/10/23 05:51:55;;;;;;;102.20;34.78;;;5.30;99.90;;;6.30;100.00;101445.91;6097520;23;20061;-84
2021/10/23 05:54:21;;;;;;;108.45;36.63;;;5.30;99.90;;;6.29;100.00;101453.41;6099387;23;20011;-87
2021/10/23 05:56:47;;;;;;;103.18;36.50;;;5.30;99.90;;;6.30;100.00;101459.78;6073827;23;20017;-84
2021/10/23 05:59:15;;;;;;;100.18;34.92;;;5.30;99.90;;;6.27;100.00;101452.91;6074411;23;20014;-84
2021/10/23 06:01:45;;;;;;;111.03;36.92;;;5.30;99.90;;;6.26;100.00;101450.47;6074176;23;20006;-84
2021/10/23 06:04:14;;;;;;;121.90;37.33;;;5.30;99.90;;;6.27;100.00;101454.88;6073516;23;20070;-83
2021/10/23 06:06:44;;;;;;;129.00;38.83;;;5.30;99.90;;;6.35;100.00;101454.97;6073289;23;20010;-84
2021/10/23 06:09:10;;;;;;;113.35;39.38;;;5.50;99.90;;;6.42;100.00;101465.66;6074409;23;20014;-83
2021/10/23 06:11:36;;;;;;;120.22;39.35;;;5.50;99.90;;;6.45;100.00;101475.31;6097257;23;20081;-83
2021/10/23 06:14:03;;;;;;;121.18;40.60;;;5.50;99.90;;;6.46;100.00;101480.53;6073852;23;20049;-85
2021/10/23 06:16:30;;;;;;;109.05;35.38;;;5.50;99.90;;;6.42;100.00;101468.44;6073467;23;20006;-85
2021/10/23 06:18:56;;;;;;;114.32;36.30;;;5.40;99.90;;;6.32;100.00;101468.66;6097450;23;20084;-85
2021/10/23 06:21:22;;;;;;;92.80;34.28;;;5.40;99.90;;;6.29;100.00;101472.03;6098951;23;20006;-85
2021/10/23 06:23:48;;;;;;;98.97;33.88;;;5.30;99.90;;;6.22;100.00;101472.47;6097287;23;20041;-85
2021/10/23 06:26:14;;;;;;;79.28;31.63;;;5.30;99.90;;;6.19;100.00;101466.69;6098853;23;20014;-87
2021/10/23 06:28:40;;;;;;;84.85;31.92;;;5.20;99.90;;;6.13;100.00;101476.25;6073506;23;20440;-84
2021/10/23 06:31:07;;;;;;;79.97;30.27;;;5.10;99.90;;;6.11;100.00;101481.28;6100208;23;20006;-83
2021/10/23 06:33:34;;;;;;;79.13;28.95;;;5.10;99.90;;;6.13;100.00;101487.34;6098750;23;20021;-82
2021/10/23 06:36:00;;;;;;;92.32;30.88;;;5.10;99.90;;;6.17;100.00;101493.91;6097365;23;20011;-84
2021/10/23 06:38:26;;;;;;;86.47;31.15;;;5.10;99.90;;;6.27;100.00;101493.69;6099521;23;20009;-85
2021/10/23 06:40:52;;;;;;;80.45;27.58;;;5.20;99.90;;;6.40;100.00;101511.47;6099059;23;20010;-85
2021/10/23 06:43:18;;;;;;;87.90;31.23;;;5.30;99.90;;;6.56;100.00;101512.78;6099275;23;20077;-85
2021/10/23 06:45:44;;;;;;;95.43;30.67;;;5.50;99.90;;;6.78;100.00;101521.19;6097863;23;20353;-86
2021/10/23 06:48:11;;;;;;;102.47;32.88;;;5.60;99.90;;;7.00;100.00;101521.22;6099073;23;20014;-85
2021/10/23 06:50:38;;;;;;;80.88;30.33;;;5.80;99.90;;;7.23;100.00;101525.69;6104257;23;20014;-85
2021/10/23 06:53:04;;;;;;;86.25;30.77;;;6.00;99.90;;;7.46;100.00;101528.47;6083123;23;20010;-85
2021/10/23 06:55:30;;;;;;;88.55;30.98;;;6.20;99.90;;;7.62;100.00;101533.34;6099046;23;20310;-83
2021/10/23 06:57:56;;;;;;;89.85;31.27;;;6.30;99.90;;;7.70;100.00;101545.66;6097319;23;20011;-82
2021/10/23 07:00:21;;;;;;;85.32;32.63;;;6.40;99.90;;;7.67;100.00;101543.53;6074670;23;20014;-81
2021/10/23 07:02:47;;;;;;;97.07;32.75;;;6.40;99.90;;;7.68;100.00;101543.19;6074402;23;20373;-85
2021/10/23 07:05:17;;;;;;;81.25;32.70;;;6.50;99.90;;;7.75;100.00;101551.09;6098025;23;20014;-83
2021/10/23 07:07:44;;;;;;;83.05;29.35;;;6.50;99.90;;;7.85;100.00;101556.38;6098297;23;20017;-85
2021/10/23 07:10:12;;;;;;;94.82;33.47;;;6.60;99.90;;;7.86;100.00;101564.44;6100244;23;20010;-83
2021/10/23 07:12:39;;;;;;;94.50;35.67;;;6.70;99.90;;;7.89;100.00;101571.31;6076713;23;20034;-83
2021/10/23 07:15:07;;;;;;;90.80;32.08;;;6.80;99.90;;;8.01;100.00;101565.16;6074983;23;20053;-85
2021/10/23 07:17:32;;;;;;;90.93;33.80;;;6.80;99.90;;;8.10;100.00;101575.19;6101386;23;20002;-85
2021/10/23 07:19:59;;;;;;;84.43;30.40;;;6.90;99.90;;;8.16;100.00;101578.63;6100273;23;20133;-83
2021/10/23 07:22:25;;;;;;;92.05;35.00;;;7.00;99.90;;;8.21;100.00;101581.31;6099921;23;20012;-84
2021/10/23 07:24:51;;;;;;;98.03;35.33;;;7.00;99.90;;;8.26;100.00;101584.75;6101356;23;20077;-83
2021/10/23 07:27:18;;;;;;;83.53;30.63;;;7.10;99.90;;;8.38;100.00;101587.78;6075007;23;20013;-81
2021/10/23 07:29:44;;;;;;;93.00;31.80;;;7.20;99.90;;;8.48;100.00;101575.56;6075539;23;20018;-84
2021/10/23 07:32:10;;;;;;;95.05;32.28;;;7.30;99.90;;;8.60;100.00;101589.69;6099090;23;20014;-85
2021/10/23 07:34:35;;;;;;;89.63;31.88;;;7.30;99.90;;;8.71;100.00;101585.47;6100523;23;20013;-83
2021/10/23 07:37:01;;;;;;;85.45;31.00;;;7.40;99.90;;;8.72;100.00;101587.13;6075716;23;20022;-82
2021/10/23 07:39:29;;;;;;;75.07;30.10;;;7.50;99.90;;;8.83;100.00;101598.78;6099245;23;20063;-83
2021/10/23 07:41:55;;;;;;;87.53;31.45;;;7.50;99.90;;;8.88;100.00;101602.25;6099989;23;20006;-84
2021/10/23 07:44:21;;;;;;;79.70;30.63;;;7.60;99.90;;;8.87;100.00;101595.03;6101063;23;20034;-84
2021/10/23 07:46:47;;;;;;;70.38;27.52;;;7.60;99.90;;;8.96;100.00;101598.63;6074221;23;20011;-86
2021/10/23 07:49:13;;;;;;;73.43;30.25;;;7.70;99.90;;;9.02;100.00;101594.56;6099632;23;20033;-83
2021/10/23 07:51:40;;;;;;;68.10;28.45;;;7.70;99.90;;;8.83;100.00;101598.78;6074921;23;20011;-86
2021/10/23 07:54:09;;;;;;;68.43;28.77;;;7.70;99.90;;;8.88;100.00;101609.78;6101315;23;20062;-82
2021/10/23 07:56:40;;;;;;;64.55;28.75;;;7.60;99.90;;;8.93;100.00;101615.19;6099958;23;20026;-84
2021/10/23 07:59:07;;;;;;;72.47;29.35;;;7.70;99.90;;;9.08;100.00;101614.75;6075311;23;20012;-83
2021/10/23 08:01:33;;;;;;;64.60;29.95;;;7.80;99.90;;;9.30;100.00;101622.16;6074693;23;20045;-85
2021/10/23 08:03:59;;;;;;;65.07;29.80;;;8.00;99.90;;;9.44;100.00;101620.84;6100776;23;20011;-83
2021/10/23 08:06:25;;;;;;;69.90;29.60;;;8.20;99.90;;;9.85;100.00;101627.91;6079017;23;20017;-82
2021/10/23 08:08:51;;;;;;;67.70;28.13;;;8.50;99.90;;;10.16;100.00;101627.72;6077809;23;20006;-83
2021/10/23 08:11:17;;;;;;;61.70;27.33;;;8.80;99.90;;;10.61;100.00;101633.66;6074978;23;20041;-83
2021/10/23 08:13:43;;;;;;;54.00;25.17;;;9.20;99.90;;;10.95;100.00;101634.31;6101068;23;20042;-81
2021/10/23 08:16:09;;;;;;;49.67;23.75;;;9.50;99.90;;;11.35;100.00;101637.53;6076183;23;20069;-83
2021/10/23 08:18:35;;;;;;;45.45;24.10;;;9.80;99.90;;;11.76;100.00;101641.53;6076492;23;20014;-84
2021/10/23 08:21:02;;;;;;;45.78;22.58;;;10.10;99.90;;;11.93;100.00;101647.00;6102247;23;20030;-84
2021/10/23 08:23:28;;;;;;;38.60;21.67;;;10.30;99.90;;;12.23;99.73;101654.13;6073401;23;20015;-84
2021/10/23 08:25:55;;;;;;;39.85;20.25;;;10.60;99.90;;;12.54;99.01;101664.81;6101658;23;20349;-85
2021/10/23 08:28:22;;;;;;;38.22;19.33;;;10.80;99.90;;;12.53;96.44;101663.16;6100644;23;20010;-81
2021/10/23 08:30:51;;;;;;;37.70;19.92;;;11.00;99.90;;;12.80;95.69;101661.72;6100683;23;20017;-81
2021/10/23 08:33:17;;;;;;;34.22;19.05;;;11.20;99.90;;;13.00;93.48;101670.00;6075882;23;20025;-81
2021/10/23 08:35:44;;;;;;;34.55;18.75;;;11.50;99.90;;;13.20;91.99;101662.66;6075849;23;20053;-86
2021/10/23 08:38:10;;;;;;;32.65;17.02;;;11.60;99.90;;;13.00;88.73;101664.41;6102125;23;20353;-84
2021/10/23 08:40:36;;;;;;;34.40;17.15;;;11.80;99.90;;;13.34;91.57;101668.75;6076444;23;20034;-86
2021/10/23 08:43:06;;;;;;;33.83;16.73;;;11.90;99.90;;;13.49;88.65;101668.03;6100458;23;20006;-85
2021/10/23 08:45:36;;;;;;;27.25;15.88;;;12.10;99.90;;;13.35;88.27;101667.59;6098448;23;20065;-83
2021/10/23 08:48:03;;;;;;;28.67;18.25;;;12.10;99.90;;;13.67;89.11;101661.00;6072859;23;20046;-84
2021/10/23 08:50:31;;;;;;;28.23;15.65;;;12.20;99.90;;;13.47;86.72;101656.34;6075205;23;20448;-83
2021/10/23 08:53:02;;;;;;;34.58;16.25;;;12.20;99.90;;;13.73;86.61;101668.00;6100590;23;20061;-82
2021/10/23 08:55:29;;;;;;;26.85;16.20;;;12.30;99.90;;;13.72;86.72;101669.16;6098631;23;20002;-82
2021/10/23 08:57:55;;;;;;;28.33;15.88;;;12.40;99.90;;;13.90;85.46;101671.69;6072480;23;20329;-83
2021/10/23 09:00:21;;;;;;;34.85;17.75;;;12.40;99.90;;;14.18;84.13;101684.56;6096797;23;20034;-83
2021/10/23 09:02:48;;;;;;;34.60;16.48;;;12.60;99.90;;;14.36;81.91;101687.06;6096955;23;20017;-85
2021/10/23 09:05:15;;;;;;;30.35;17.25;;;12.70;99.90;;;14.26;83.22;101691.19;6073065;23;20073;-83
2021/10/23 09:07:53;;;;;;;28.65;16.42;;;12.80;99.90;;;14.51;83.33;101698.34;6104053;23;20007;-80
2021/10/23 09:10:31;;;;;;;28.85;14.50;;;13.00;99.90;;;14.79;81.67;101698.31;6118812;23;20010;-83
2021/10/23 09:13:07;;;;;;;30.90;15.52;;;13.10;99.90;;;14.93;80.76;101701.50;6074177;23;20007;-84
2021/10/23 09:15:41;;;;;;;27.58;14.80;;;13.20;99.90;;;15.10;80.28;101708.75;6098943;23;20010;-83
2021/10/23 09:18:09;;;;;;;31.30;14.70;;;13.40;99.90;;;14.90;78.49;101707.06;6099852;23;20006;-82
2021/10/23 09:20:43;;;;;;;25.45;14.07;;;13.30;99.90;;;14.63;79.51;101706.75;6108783;23;20061;-81
2021/10/23 09:23:19;;;;;;;22.33;11.93;;;13.30;99.90;;;15.04;80.14;101711.03;6097304;23;19999;-81
2021/10/23 09:25:51;;;;;;;23.80;12.27;;;13.40;99.90;;;15.28;80.66;101710.03;6121925;23;20019;-77
2021/10/23 09:28:29;;;;;;;26.48;14.05;;;13.60;99.90;;;15.31;75.66;101712.13;6122717;23;20400;-78
2021/10/23 09:30:55;;;;;;;24.85;12.95;;;13.70;99.90;;;15.15;77.71;101708.50;6097295;23;20002;-78
2021/10/23 09:33:26;;;;;;;26.23;12.93;;;13.60;99.90;;;15.45;76.46;101708.81;6121832;23;20002;-80
2021/10/23 09:35:57;;;;;;;21.83;10.82;;;13.70;99.90;;;15.36;75.60;101714.66;6097596;23;19995;-79
2021/10/23 09:38:31;;;;;;;24.98;9.85;;;13.70;99.90;;;15.22;75.02;101719.91;6105175;23;20414;-83
2021/10/23 09:41:15;;;;;;;19.08;10.05;;;13.60;99.90;;;14.95;74.67;101720.84;6100191;23;20029;-82
2021/10/23 09:43:41;;;;;;;20.67;11.05;;;13.50;99.90;;;14.82;75.70;101722.09;6099301;23;20460;-83
2021/10/23 09:46:13;;;;;;;22.13;10.88;;;13.20;99.90;;;14.89;77.17;101730.72;6072927;23;20011;-85
2021/10/23 09:48:52;;;;;;;20.30;10.10;;;13.30;99.90;;;15.21;77.22;101736.00;6073927;23;20089;-82
2021/10/23 09:51:29;;;;;;;21.48;10.60;;;13.50;99.90;;;15.48;75.43;101737.09;6098349;23;20054;-86
2021/10/23 09:54:04;;;;;;;21.65;10.85;;;13.60;99.90;;;15.71;74.30;101740.88;6072599;23;20010;-81
2021/10/23 09:56:39;;;;;;;21.35;9.77;;;13.90;99.90;;;15.57;73.20;101748.97;6072937;23;20021;-82
2021/10/23 09:59:13;;;;;;;18.60;9.55;;;13.90;99.90;;;15.52;72.94;101756.91;6097331;23;20070;-82
2021/10/23 10:01:43;;;;;;;24.00;9.27;;;13.80;99.90;;;15.15;72.92;101759.16;6098280;23;20011;-84
2021/10/23 10:04:15;;;;;;;24.75;12.95;;;13.60;99.90;;;15.10;73.42;101760.22;6100164;23;20018;-85